Time;durP1;ratioP1;P1;durP2;ratioP2;P2;SDS_P1;SDS_P2;PMS_P1;PMS_P2;Temp;Humidity;BMP_temperature;BMP_pressure;BME280_temperature;BME280_humidity;BME280_pressure;Samples;Min_cycle;Max_cycle;Signal;HPM_P1;HPM_P2
2023/08/11 00:00:27;;;;;;;;;;;;;;;;;;1054846;28;3891;-60
2023/08/11 00:01:17;;;;;;;;;;;;;;;;;;1048884;28;4080;-61
2023/08/11 00:01:48;;;;;;;;;;;;;;;;;;1051432;28;1610;-58
2023/08/11 00:02:18;;;;;;;;;;;;;;;;;;1048474;28;4380;-60
2023/08/11 00:02:50;;;;;;;;;;;;;;;;;;1053888;28;3040;-60
2023/08/11 00:03:20;;;;;;;;;;;;;;;;;;1055121;28;4101;-58
2023/08/11 00:03:50;;;;;;;;;;;;;;;;;;1055791;28;1913;-60
2023/08/11 00:04:20;;;;;;;;;;;;;;;;;;1055233;28;3840;-60
2023/08/11 00:04:51;;;;;;;;;;;;;;;;;;1055899;28;1824;-60
2023/08/11 00:05:21;;;;;;;;;;;;;;;;;;1054387;28;3948;-60
2023/08/11 00:05:55;;;;;;;;;;;;;;;;;;1056285;28;1632;-60
2023/08/11 00:06:25;;;;;;;;;;;;;;;;;;1055153;28;3916;-59
2023/08/11 00:06:55;;;;;;;;;;;;;;;;;;1056121;28;1474;-60
2023/08/11 00:07:25;;;;;;;;;;;;;;;;;;1053313;28;5167;-59
2023/08/11 00:07:57;;;;;;;;;;;;;;;;;;1056199;28;1647;-59
2023/08/11 00:08:27;;;;;;;;;;;;;;;;;;1054104;28;4040;-60
2023/08/11 00:08:58;;;;;;;;;;;;;;;;;;1056185;28;1306;-57
2023/08/11 00:09:28;;;;;;;;;;;;;;;;;;1050869;28;3949;-58
2023/08/11 00:09:58;;;;;;;;;;;;;;;;;;1046991;28;2183;-60
2023/08/11 00:10:29;;;;;;;;;;;;;;;;;;1046867;28;4016;-59
2023/08/11 00:10:59;;;;;;;;;;;;;;;;;;1047055;28;1938;-60
2023/08/11 00:11:29;;;;;;;;;;;;;;;;;;1049798;28;3782;-59
2023/08/11 00:12:00;;;;;;;;;;;;;;;;;;1055547;28;3015;-61
2023/08/11 00:12:30;;;;;;;;;;;;;;;;;;1054926;28;4032;-59
2023/08/11 00:13:01;;;;;;;;;;;;;;;;;;1055719;28;1656;-60
2023/08/11 00:13:31;;;;;;;;;;;;;;;;;;1055525;28;4393;-58
2023/08/11 00:14:02;;;;;;;;;;;;;;;;;;1055489;28;1816;-58
2023/08/11 00:14:32;;;;;;;;;;;;;;;;;;1051238;28;4096;-59
2023/08/11 00:15:02;;;;;;;;;;;;;;;;;;1050970;28;1744;-58
2023/08/11 00:15:39;;;;;;;;;;;;;;;;;;1051113;28;4270;-57
2023/08/11 00:16:10;;;;;;;;;;;;;;;;;;1052281;28;1705;-60
2023/08/11 00:16:40;;;;;;;;;;;;;;;;;;1054176;28;3959;-59
2023/08/11 00:17:10;;;;;;;;;;;;;;;;;;1055160;28;1662;-57
2023/08/11 00:17:41;;;;;;;;;;;;;;;;;;1051805;28;3646;-60
2023/08/11 00:18:11;;;;;;;;;;;;;;;;;;1050945;28;4052;-60
2023/08/11 00:18:41;;;;;;;;;;;;;;;;;;1051844;28;1607;-59
2023/08/11 00:19:12;;;;;;;;;;;;;;;;;;1051594;27;4114;-60
2023/08/11 00:19:42;;;;;;;;;;;;;;;;;;1051205;28;1600;-60
2023/08/11 00:20:12;;;;;;;;;;;;;;;;;;1050663;28;4199;-59
2023/08/11 00:20:42;;;;;;;;;;;;;;;;;;1050177;28;3024;-59
2023/08/11 00:21:13;;;;;;;;;;;;;;;;;;1051518;28;4311;-61
2023/08/11 00:21:43;;;;;;;;;;;;;;;;;;1051403;28;1717;-61
2023/08/11 00:22:13;;;;;;;;;;;;;;;;;;1051178;27;4049;-57
2023/08/11 00:22:44;;;;;;;;;;;;;;;;;;1051178;28;1521;-59
2023/08/11 00:23:15;;;;;;;;;;;;;;;;;;1049620;28;4056;-58
2023/08/11 00:23:45;;;;;;;;;;;;;;;;;;1051150;28;1977;-58
2023/08/11 00:24:16;;;;;;;;;;;;;;;;;;1052161;28;4022;-58
2023/08/11 00:24:46;;;;;;;;;;;;;;;;;;1055618;28;1416;-59
2023/08/11 00:25:17;;;;;;;;;;;;;;;;;;1055486;28;4045;-59
2023/08/11 00:25:47;;;;;;;;;;;;;;;;;;1055750;28;1762;-59
2023/08/11 00:26:17;;;;;;;;;;;;;;;;;;1055153;27;4110;-59
2023/08/11 00:26:47;;;;;;;;;;;;;;;;;;1054902;28;4271;-59
2023/08/11 00:27:19;;;;;;;;;;;;;;;;;;1054901;27;4083;-59
2023/08/11 00:27:50;;;;;;;;;;;;;;;;;;1055268;28;2990;-60
2023/08/11 00:28:20;;;;;;;;;;;;;;;;;;1054907;28;4049;-56
2023/08/11 00:28:50;;;;;;;;;;;;;;;;;;1056198;28;1688;-59
2023/08/11 00:29:21;;;;;;;;;;;;;;;;;;1055371;28;3942;-56
2023/08/11 00:29:51;;;;;;;;;;;;;;;;;;1051427;28;1693;-60
2023/08/11 00:30:23;;;;;;;;;;;;;;;;;;1049499;28;3947;-58
2023/08/11 00:30:54;;;;;;;;;;;;;;;;;;1051546;28;1782;-55
2023/08/11 00:31:24;;;;;;;;;;;;;;;;;;1051674;28;4057;-58
2023/08/11 00:31:54;;;;;;;;;;;;;;;;;;1055586;28;2361;-60
2023/08/11 00:32:25;;;;;;;;;;;;;;;;;;1055366;28;5204;-58
2023/08/11 00:32:55;;;;;;;;;;;;;;;;;;1055310;28;1361;-58
2023/08/11 00:33:25;;;;;;;;;;;;;;;;;;1055631;27;4009;-60
2023/08/11 00:33:56;;;;;;;;;;;;;;;;;;1055449;28;1633;-59
2023/08/11 00:34:26;;;;;;;;;;;;;;;;;;1055481;28;3785;-59
2023/08/11 00:34:57;;;;;;;;;;;;;;;;;;1055435;28;1578;-59
2023/08/11 00:35:27;;;;;;;;;;;;;;;;;;1054945;28;4045;-58
2023/08/11 00:35:57;;;;;;;;;;;;;;;;;;1055440;28;1668;-61
2023/08/11 00:36:28;;;;;;;;;;;;;;;;;;1055625;27;4212;-60
2023/08/11 00:36:58;;;;;;;;;;;;;;;;;;1055386;28;1708;-56
2023/08/11 00:37:28;;;;;;;;;;;;;;;;;;1055749;27;4035;-58
2023/08/11 00:37:58;;;;;;;;;;;;;;;;;;1055768;28;1474;-58
2023/08/11 00:38:35;;;;;;;;;;;;;;;;;;1055302;28;4035;-60
2023/08/11 00:39:05;;;;;;;;;;;;;;;;;;1055480;28;1449;-58
2023/08/11 00:39:36;;;;;;;;;;;;;;;;;;1055644;27;3771;-59
2023/08/11 00:40:06;;;;;;;;;;;;;;;;;;1054317;28;3082;-60
2023/08/11 00:40:36;;;;;;;;;;;;;;;;;;1055277;27;4017;-59
2023/08/11 00:41:07;;;;;;;;;;;;;;;;;;1055491;28;3101;-58
2023/08/11 00:41:37;;;;;;;;;;;;;;;;;;1054446;28;3783;-61
2023/08/11 00:42:07;;;;;;;;;;;;;;;;;;1054488;28;3039;-60
2023/08/11 00:42:37;;;;;;;;;;;;;;;;;;1054343;28;4060;-59
2023/08/11 00:43:08;;;;;;;;;;;;;;;;;;1054783;28;3085;-56
2023/08/11 00:43:38;;;;;;;;;;;;;;;;;;1054874;27;3866;-59
2023/08/11 00:44:08;;;;;;;;;;;;;;;;;;1055823;28;1906;-60
2023/08/11 00:44:39;;;;;;;;;;;;;;;;;;1054917;28;3914;-60
2023/08/11 00:45:09;;;;;;;;;;;;;;;;;;1055273;28;3053;-60
2023/08/11 00:45:43;;;;;;;;;;;;;;;;;;1054826;28;3991;-59
2023/08/11 00:46:14;;;;;;;;;;;;;;;;;;1055754;27;4033;-59
2023/08/11 00:46:45;;;;;;;;;;;;;;;;;;1056881;28;1686;-59
2023/08/11 00:47:16;;;;;;;;;;;;;;;;;;1055690;28;4498;-60
2023/08/11 00:47:46;;;;;;;;;;;;;;;;;;1057139;28;1487;-60
2023/08/11 00:48:16;;;;;;;;;;;;;;;;;;1055672;27;3985;-60
2023/08/11 00:48:50;;;;;;;;;;;;;;;;;;1056701;28;1762;-57
2023/08/11 00:49:21;;;;;;;;;;;;;;;;;;1056225;28;3817;-61
2023/08/11 00:49:51;;;;;;;;;;;;;;;;;;1056776;28;1585;-60
2023/08/11 00:50:22;;;;;;;;;;;;;;;;;;1056101;27;3946;-57
2023/08/11 00:50:57;;;;;;;;;;;;;;;;;;1056713;28;1404;-60
2023/08/11 00:51:28;;;;;;;;;;;;;;;;;;1055195;27;3935;-61
2023/08/11 00:51:58;;;;;;;;;;;;;;;;;;1056708;28;1531;-60
2023/08/11 00:52:28;;;;;;;;;;;;;;;;;;1054547;28;3786;-61
2023/08/11 00:53:01;;;;;;;;;;;;;;;;;;1056035;28;2968;-59
2023/08/11 00:53:35;;;;;;;;;;;;;;;;;;1053316;28;4055;-60
2023/08/11 00:54:06;;;;;;;;;;;;;;;;;;1055208;28;2927;-61
2023/08/11 00:54:37;;;;;;;;;;;;;;;;;;1055776;28;4344;-61
2023/08/11 00:55:09;;;;;;;;;;;;;;;;;;1056625;28;1612;-61
2023/08/11 00:55:39;;;;;;;;;;;;;;;;;;1055939;28;3905;-59
2023/08/11 00:56:10;;;;;;;;;;;;;;;;;;1055945;28;1792;-58
2023/08/11 00:56:44;;;;;;;;;;;;;;;;;;1056050;27;3948;-61
2023/08/11 00:57:14;;;;;;;;;;;;;;;;;;1055185;28;4094;-58
2023/08/11 00:57:45;;;;;;;;;;;;;;;;;;1056210;28;1632;-58
2023/08/11 00:58:15;;;;;;;;;;;;;;;;;;1056516;27;4136;-60
2023/08/11 00:58:46;;;;;;;;;;;;;;;;;;1056241;28;1641;-58
2023/08/11 00:59:19;;;;;;;;;;;;;;;;;;1055782;27;4148;-59
2023/08/11 00:59:49;;;;;;;;;;;;;;;;;;1056345;28;1744;-60
2023/08/11 01:00:19;;;;;;;;;;;;;;;;;;1054976;28;3802;-59
2023/08/11 01:00:51;;;;;;;;;;;;;;;;;;1055728;28;1891;-60
2023/08/11 01:01:21;;;;;;;;;;;;;;;;;;1056524;27;4051;-60
2023/08/11 01:01:51;;;;;;;;;;;;;;;;;;1056139;28;1670;-59
2023/08/11 01:02:22;;;;;;;;;;;;;;;;;;1056151;27;3863;-59
2023/08/11 01:02:53;;;;;;;;;;;;;;;;;;1056280;28;2484;-61
2023/08/11 01:03:23;;;;;;;;;;;;;;;;;;1056373;28;3790;-60
2023/08/11 01:03:54;;;;;;;;;;;;;;;;;;1056138;28;1902;-61
2023/08/11 01:04:24;;;;;;;;;;;;;;;;;;1056428;27;3796;-59
2023/08/11 01:04:54;;;;;;;;;;;;;;;;;;1056908;28;1451;-59
2023/08/11 01:05:26;;;;;;;;;;;;;;;;;;1050061;28;3832;-58
2023/08/11 01:06:16;;;;;;;;;;;;;;;;;;1052143;28;1731;-58
2023/08/11 01:06:50;;;;;;;;;;;;;;;;;;1051877;28;4066;-61
2023/08/11 01:07:23;;;;;;;;;;;;;;;;;;1053148;28;4383;-60
2023/08/11 01:08:03;;;;;;;;;;;;;;;;;;1056830;28;1702;-59
2023/08/11 01:08:41;;;;;;;;;;;;;;;;;;1054350;28;3880;-61
2023/08/11 01:09:15;;;;;;;;;;;;;;;;;;1056065;27;3774;-60
2023/08/11 01:09:50;;;;;;;;;;;;;;;;;;1056259;28;1902;-61
2023/08/11 01:10:24;;;;;;;;;;;;;;;;;;1056421;28;4176;-60
2023/08/11 01:11:03;;;;;;;;;;;;;;;;;;1056202;28;1648;-59
2023/08/11 01:11:41;;;;;;;;;;;;;;;;;;1054835;28;4058;-59
2023/08/11 01:12:50;;;;;;;;;;;;;;;;;;1056076;27;4056;-57
2023/08/11 01:13:20;;;;;;;;;;;;;;;;;;1033140;28;4238;-59
2023/08/11 01:14:02;;;;;;;;;;;;;;;;;;1033386;28;1747;-60
2023/08/11 01:14:47;;;;;;;;;;;;;;;;;;1029483;28;4083;-59
2023/08/11 01:15:22;;;;;;;;;;;;;;;;;;1029607;28;4051;-58
2023/08/11 01:15:58;;;;;;;;;;;;;;;;;;1030984;28;2012;-59
2023/08/11 01:16:29;;;;;;;;;;;;;;;;;;1031537;28;4261;-60
2023/08/11 01:17:01;;;;;;;;;;;;;;;;;;1030952;28;1910;-57
2023/08/11 01:17:32;;;;;;;;;;;;;;;;;;1029869;28;3964;-59
2023/08/11 01:18:04;;;;;;;;;;;;;;;;;;1031190;28;1436;-60
2023/08/11 01:18:34;;;;;;;;;;;;;;;;;;1031106;28;3961;-58
2023/08/11 01:19:05;;;;;;;;;;;;;;;;;;1037555;28;1324;-58
2023/08/11 01:19:36;;;;;;;;;;;;;;;;;;1056526;27;3971;-58
2023/08/11 01:20:10;;;;;;;;;;;;;;;;;;1056129;28;1722;-60
2023/08/11 01:20:41;;;;;;;;;;;;;;;;;;1051457;28;3992;-58
2023/08/11 01:21:12;;;;;;;;;;;;;;;;;;1051223;28;4127;-59
2023/08/11 01:21:44;;;;;;;;;;;;;;;;;;1052086;28;1677;-60
2023/08/11 01:22:16;;;;;;;;;;;;;;;;;;1051500;28;4168;-60
2023/08/11 01:22:50;;;;;;;;;;;;;;;;;;1056828;28;1780;-60
2023/08/11 01:23:24;;;;;;;;;;;;;;;;;;1054176;28;3796;-59
2023/08/11 01:23:55;;;;;;;;;;;;;;;;;;1056059;28;1971;-60
2023/08/11 01:24:26;;;;;;;;;;;;;;;;;;1050957;28;3809;-60
2023/08/11 01:24:56;;;;;;;;;;;;;;;;;;1051977;28;1696;-60
2023/08/11 01:25:27;;;;;;;;;;;;;;;;;;1052102;28;4140;-57
2023/08/11 01:25:57;;;;;;;;;;;;;;;;;;1051840;28;1662;-59
2023/08/11 01:26:28;;;;;;;;;;;;;;;;;;1055624;28;3862;-61
2023/08/11 01:26:58;;;;;;;;;;;;;;;;;;1051927;28;1329;-60
2023/08/11 01:27:28;;;;;;;;;;;;;;;;;;1051969;28;4184;-61
2023/08/11 01:27:59;;;;;;;;;;;;;;;;;;1052352;28;2103;-60
2023/08/11 01:28:32;;;;;;;;;;;;;;;;;;1050504;28;4295;-60
2023/08/11 01:29:03;;;;;;;;;;;;;;;;;;1056939;28;1676;-58
2023/08/11 01:29:33;;;;;;;;;;;;;;;;;;1054810;28;3889;-59
2023/08/11 01:30:05;;;;;;;;;;;;;;;;;;1055738;28;2925;-59
2023/08/11 01:30:36;;;;;;;;;;;;;;;;;;1051748;28;4158;-59
2023/08/11 01:31:08;;;;;;;;;;;;;;;;;;1051711;28;1900;-58
2023/08/11 01:31:38;;;;;;;;;;;;;;;;;;1051743;28;3960;-57
2023/08/11 01:32:08;;;;;;;;;;;;;;;;;;1051942;28;1680;-59
2023/08/11 01:32:39;;;;;;;;;;;;;;;;;;1055350;28;3882;-60
2023/08/11 01:33:09;;;;;;;;;;;;;;;;;;1051004;28;3061;-58
2023/08/11 01:33:40;;;;;;;;;;;;;;;;;;1051967;28;3980;-61
2023/08/11 01:34:10;;;;;;;;;;;;;;;;;;1051348;28;1599;-58
2023/08/11 01:34:40;;;;;;;;;;;;;;;;;;1051401;28;3795;-60
2023/08/11 01:35:11;;;;;;;;;;;;;;;;;;1055475;27;3789;-59
2023/08/11 01:35:41;;;;;;;;;;;;;;;;;;1055192;28;2319;-60
2023/08/11 01:36:11;;;;;;;;;;;;;;;;;;1055584;28;4072;-61
2023/08/11 01:36:41;;;;;;;;;;;;;;;;;;1056800;28;1779;-60
2023/08/11 01:37:12;;;;;;;;;;;;;;;;;;1055612;27;4570;-58
2023/08/11 01:37:43;;;;;;;;;;;;;;;;;;1056751;28;1755;-59
2023/08/11 01:38:13;;;;;;;;;;;;;;;;;;1055693;27;4021;-58
2023/08/11 01:38:43;;;;;;;;;;;;;;;;;;1055212;28;3582;-60
2023/08/11 01:39:14;;;;;;;;;;;;;;;;;;1055689;27;4071;-59
2023/08/11 01:39:44;;;;;;;;;;;;;;;;;;1054849;28;1308;-58
2023/08/11 01:40:14;;;;;;;;;;;;;;;;;;1056492;27;4060;-59
2023/08/11 01:40:45;;;;;;;;;;;;;;;;;;1051678;28;1669;-60
2023/08/11 01:41:15;;;;;;;;;;;;;;;;;;1051829;28;3884;-60
2023/08/11 01:41:45;;;;;;;;;;;;;;;;;;1050957;28;3205;-60
2023/08/11 01:42:15;;;;;;;;;;;;;;;;;;1050984;28;4064;-60
2023/08/11 01:42:46;;;;;;;;;;;;;;;;;;1055997;28;1407;-61
2023/08/11 01:43:17;;;;;;;;;;;;;;;;;;1055371;28;4375;-60
2023/08/11 01:43:48;;;;;;;;;;;;;;;;;;1055845;28;3494;-57
2023/08/11 01:44:19;;;;;;;;;;;;;;;;;;1056150;27;4017;-57
2023/08/11 01:44:50;;;;;;;;;;;;;;;;;;1054714;28;2758;-59
2023/08/11 01:45:21;;;;;;;;;;;;;;;;;;1055311;28;3954;-60
2023/08/11 01:45:51;;;;;;;;;;;;;;;;;;1056074;28;2849;-60
2023/08/11 01:46:22;;;;;;;;;;;;;;;;;;1055890;27;4034;-57
2023/08/11 01:46:54;;;;;;;;;;;;;;;;;;1056556;28;1772;-56
2023/08/11 01:47:24;;;;;;;;;;;;;;;;;;1055843;27;3932;-59
2023/08/11 01:47:55;;;;;;;;;;;;;;;;;;1056050;28;3003;-58
2023/08/11 01:48:26;;;;;;;;;;;;;;;;;;1055346;27;4054;-59
2023/08/11 01:48:57;;;;;;;;;;;;;;;;;;1056886;28;1482;-60
2023/08/11 01:49:28;;;;;;;;;;;;;;;;;;1055479;27;3795;-59
2023/08/11 01:49:58;;;;;;;;;;;;;;;;;;1056729;28;1533;-61
2023/08/11 01:50:29;;;;;;;;;;;;;;;;;;1055594;27;3883;-60
2023/08/11 01:50:59;;;;;;;;;;;;;;;;;;1055826;28;3033;-57
2023/08/11 01:51:29;;;;;;;;;;;;;;;;;;1055540;27;4347;-60
2023/08/11 01:52:00;;;;;;;;;;;;;;;;;;1056445;28;1732;-58
2023/08/11 01:52:31;;;;;;;;;;;;;;;;;;1055539;27;4020;-57
2023/08/11 01:53:01;;;;;;;;;;;;;;;;;;1056545;28;1684;-59
2023/08/11 01:53:31;;;;;;;;;;;;;;;;;;1054194;27;4491;-60
2023/08/11 01:54:02;;;;;;;;;;;;;;;;;;1056593;28;2913;-59
2023/08/11 01:54:33;;;;;;;;;;;;;;;;;;1055349;27;4225;-59
2023/08/11 01:55:03;;;;;;;;;;;;;;;;;;1056750;28;1373;-59
2023/08/11 01:55:33;;;;;;;;;;;;;;;;;;1055490;27;3910;-58
2023/08/11 01:56:05;;;;;;;;;;;;;;;;;;1056654;28;1365;-58
2023/08/11 01:56:36;;;;;;;;;;;;;;;;;;1055737;28;4350;-60
2023/08/11 01:57:07;;;;;;;;;;;;;;;;;;1056802;28;1463;-59
2023/08/11 01:57:38;;;;;;;;;;;;;;;;;;1055887;27;4033;-60
2023/08/11 01:58:09;;;;;;;;;;;;;;;;;;1053667;28;1504;-59
2023/08/11 01:58:39;;;;;;;;;;;;;;;;;;1055820;27;4014;-60
2023/08/11 01:59:14;;;;;;;;;;;;;;;;;;1056033;28;1803;-59
2023/08/11 01:59:45;;;;;;;;;;;;;;;;;;1055442;28;3650;-57
2023/08/11 02:00:16;;;;;;;;;;;;;;;;;;1055220;28;4216;-60
2023/08/11 02:00:46;;;;;;;;;;;;;;;;;;1055179;28;1401;-60
2023/08/11 02:01:16;;;;;;;;;;;;;;;;;;1055548;28;3791;-60
2023/08/11 02:01:46;;;;;;;;;;;;;;;;;;1056693;28;1632;-59
2023/08/11 02:02:18;;;;;;;;;;;;;;;;;;1055374;28;4053;-60
2023/08/11 02:02:48;;;;;;;;;;;;;;;;;;1056673;28;1736;-60
2023/08/11 02:03:18;;;;;;;;;;;;;;;;;;1055435;28;4053;-59
2023/08/11 02:03:49;;;;;;;;;;;;;;;;;;1056493;28;1909;-60
2023/08/11 02:04:19;;;;;;;;;;;;;;;;;;1055337;28;4040;-58
2023/08/11 02:04:49;;;;;;;;;;;;;;;;;;1056571;28;1689;-59
2023/08/11 02:05:20;;;;;;;;;;;;;;;;;;1055386;28;3874;-60
2023/08/11 02:05:50;;;;;;;;;;;;;;;;;;1056729;28;1776;-58
2023/08/11 02:06:20;;;;;;;;;;;;;;;;;;1055467;27;4292;-57
2023/08/11 02:06:50;;;;;;;;;;;;;;;;;;1056571;28;1861;-61
2023/08/11 02:07:21;;;;;;;;;;;;;;;;;;1054869;27;3856;-58
2023/08/11 02:07:51;;;;;;;;;;;;;;;;;;1055786;28;3144;-60
2023/08/11 02:08:21;;;;;;;;;;;;;;;;;;1055442;27;3968;-60
2023/08/11 02:08:51;;;;;;;;;;;;;;;;;;1055621;28;1994;-58
2023/08/11 02:09:22;;;;;;;;;;;;;;;;;;1056070;28;3998;-58
2023/08/11 02:09:54;;;;;;;;;;;;;;;;;;1055958;28;1710;-60
2023/08/11 02:10:24;;;;;;;;;;;;;;;;;;1056165;28;3994;-61
2023/08/11 02:10:54;;;;;;;;;;;;;;;;;;1055825;28;1570;-61
2023/08/11 02:11:25;;;;;;;;;;;;;;;;;;1056359;28;3883;-58
2023/08/11 02:11:55;;;;;;;;;;;;;;;;;;1055460;28;3080;-60
2023/08/11 02:12:25;;;;;;;;;;;;;;;;;;1055397;28;4076;-61
2023/08/11 02:12:55;;;;;;;;;;;;;;;;;;1054484;28;3081;-59
2023/08/11 02:13:26;;;;;;;;;;;;;;;;;;1056069;28;4095;-60
2023/08/11 02:13:56;;;;;;;;;;;;;;;;;;1055760;28;1834;-59
2023/08/11 02:14:26;;;;;;;;;;;;;;;;;;1055927;28;4059;-60
2023/08/11 02:14:57;;;;;;;;;;;;;;;;;;1056002;28;1734;-59
2023/08/11 02:15:27;;;;;;;;;;;;;;;;;;1055555;27;3967;-59
2023/08/11 02:15:57;;;;;;;;;;;;;;;;;;1055906;28;1787;-59
2023/08/11 02:16:28;;;;;;;;;;;;;;;;;;1056177;28;3944;-57
2023/08/11 02:16:58;;;;;;;;;;;;;;;;;;1056834;28;1613;-59
2023/08/11 02:17:31;;;;;;;;;;;;;;;;;;1055570;28;4032;-60
2023/08/11 02:18:01;;;;;;;;;;;;;;;;;;1056761;28;1350;-59
2023/08/11 02:18:31;;;;;;;;;;;;;;;;;;1055539;28;4543;-59
2023/08/11 02:19:02;;;;;;;;;;;;;;;;;;1056422;28;1597;-60
2023/08/11 02:19:32;;;;;;;;;;;;;;;;;;1054581;27;3780;-55
2023/08/11 02:20:18;;;;;;;;;;;;;;;;;;1056655;28;1696;-55
2023/08/11 02:20:48;;;;;;;;;;;;;;;;;;1055168;28;3985;-58
2023/08/11 02:21:18;;;;;;;;;;;;;;;;;;1055029;28;3963;-61
2023/08/11 02:21:49;;;;;;;;;;;;;;;;;;1051932;28;1964;-58
2023/08/11 02:22:20;;;;;;;;;;;;;;;;;;1053221;28;3891;-58
2023/08/11 02:22:50;;;;;;;;;;;;;;;;;;1054628;28;3117;-58
2023/08/11 02:23:20;;;;;;;;;;;;;;;;;;1055351;28;3867;-60
2023/08/11 02:23:51;;;;;;;;;;;;;;;;;;1055430;28;1921;-59
2023/08/11 02:24:21;;;;;;;;;;;;;;;;;;1056100;28;4029;-60
2023/08/11 02:24:51;;;;;;;;;;;;;;;;;;1055796;28;1878;-58
2023/08/11 02:25:22;;;;;;;;;;;;;;;;;;1056189;28;4369;-58
2023/08/11 02:25:52;;;;;;;;;;;;;;;;;;1055323;28;1749;-59
2023/08/11 02:26:22;;;;;;;;;;;;;;;;;;1056207;28;4012;-58
2023/08/11 02:26:52;;;;;;;;;;;;;;;;;;1055667;28;1840;-60
2023/08/11 02:27:23;;;;;;;;;;;;;;;;;;1056299;28;3978;-59
2023/08/11 02:27:53;;;;;;;;;;;;;;;;;;1056461;28;1733;-59
2023/08/11 02:28:23;;;;;;;;;;;;;;;;;;1055720;28;4369;-60
2023/08/11 02:28:53;;;;;;;;;;;;;;;;;;1056197;28;1616;-59
2023/08/11 02:29:24;;;;;;;;;;;;;;;;;;1055654;28;3891;-58
2023/08/11 02:29:54;;;;;;;;;;;;;;;;;;1055319;28;3154;-61
2023/08/11 02:30:29;;;;;;;;;;;;;;;;;;1054563;28;4105;-58
2023/08/11 02:30:59;;;;;;;;;;;;;;;;;;1051747;28;1639;-60
2023/08/11 02:31:32;;;;;;;;;;;;;;;;;;1050029;28;4080;-59
2023/08/11 02:32:03;;;;;;;;;;;;;;;;;;1051883;28;1456;-59
2023/08/11 02:32:34;;;;;;;;;;;;;;;;;;1051471;28;3889;-58
2023/08/11 02:33:04;;;;;;;;;;;;;;;;;;1056550;28;1592;-60
2023/08/11 02:33:35;;;;;;;;;;;;;;;;;;1055310;28;3839;-60
2023/08/11 02:34:05;;;;;;;;;;;;;;;;;;1056250;28;1708;-58
2023/08/11 02:34:36;;;;;;;;;;;;;;;;;;1055260;28;3720;-60
2023/08/11 02:35:06;;;;;;;;;;;;;;;;;;1056454;28;1599;-61
2023/08/11 02:35:36;;;;;;;;;;;;;;;;;;1055595;28;3980;-58
2023/08/11 02:36:07;;;;;;;;;;;;;;;;;;1056329;28;1421;-59
2023/08/11 02:36:37;;;;;;;;;;;;;;;;;;1055968;28;4199;-58
2023/08/11 02:37:08;;;;;;;;;;;;;;;;;;1056015;28;1851;-57
2023/08/11 02:37:39;;;;;;;;;;;;;;;;;;1054506;28;3773;-61
2023/08/11 02:38:09;;;;;;;;;;;;;;;;;;1055973;28;1635;-59
2023/08/11 02:38:40;;;;;;;;;;;;;;;;;;1055080;28;4262;-60
2023/08/11 02:39:10;;;;;;;;;;;;;;;;;;1051207;28;1537;-57
2023/08/11 02:39:40;;;;;;;;;;;;;;;;;;1051387;28;3855;-59
2023/08/11 02:40:11;;;;;;;;;;;;;;;;;;1050964;28;4219;-58
2023/08/11 02:40:41;;;;;;;;;;;;;;;;;;1052097;28;1641;-57
2023/08/11 02:41:11;;;;;;;;;;;;;;;;;;1051017;28;3931;-61
2023/08/11 02:41:42;;;;;;;;;;;;;;;;;;1051961;28;1374;-61
2023/08/11 02:42:12;;;;;;;;;;;;;;;;;;1053742;28;3805;-58
2023/08/11 02:42:51;;;;;;;;;;;;;;;;;;1054514;28;2971;-56
2023/08/11 02:43:22;;;;;;;;;;;;;;;;;;1054846;28;4152;-58
2023/08/11 02:43:52;;;;;;;;;;;;;;;;;;1056296;28;1922;-55
2023/08/11 02:44:22;;;;;;;;;;;;;;;;;;1055253;28;3905;-59
2023/08/11 02:44:53;;;;;;;;;;;;;;;;;;1055565;28;3024;-60
2023/08/11 02:45:23;;;;;;;;;;;;;;;;;;1054649;28;4048;-60
2023/08/11 02:45:54;;;;;;;;;;;;;;;;;;1055659;28;2946;-59
2023/08/11 02:46:24;;;;;;;;;;;;;;;;;;1055513;28;3961;-59
2023/08/11 02:46:54;;;;;;;;;;;;;;;;;;1056202;28;1774;-59
2023/08/11 02:47:25;;;;;;;;;;;;;;;;;;1055901;28;3800;-60
2023/08/11 02:47:56;;;;;;;;;;;;;;;;;;1055763;28;1880;-60
2023/08/11 02:48:26;;;;;;;;;;;;;;;;;;1056097;28;3975;-58
2023/08/11 02:48:56;;;;;;;;;;;;;;;;;;1055823;28;1658;-59
2023/08/11 02:49:27;;;;;;;;;;;;;;;;;;1056101;28;4021;-59
2023/08/11 02:49:57;;;;;;;;;;;;;;;;;;1054512;28;1706;-59
2023/08/11 02:50:28;;;;;;;;;;;;;;;;;;1056027;28;4222;-60
2023/08/11 02:50:58;;;;;;;;;;;;;;;;;;1055817;28;1841;-59
2023/08/11 02:51:28;;;;;;;;;;;;;;;;;;1055943;28;4028;-61
2023/08/11 02:51:58;;;;;;;;;;;;;;;;;;1055738;28;1808;-59
2023/08/11 02:52:29;;;;;;;;;;;;;;;;;;1055348;28;3956;-60
2023/08/11 02:52:59;;;;;;;;;;;;;;;;;;1055316;28;2837;-61
2023/08/11 02:53:29;;;;;;;;;;;;;;;;;;1055762;28;3736;-60
2023/08/11 02:54:00;;;;;;;;;;;;;;;;;;1055529;28;1803;-57
2023/08/11 02:54:31;;;;;;;;;;;;;;;;;;1055639;28;4377;-59
2023/08/11 02:55:04;;;;;;;;;;;;;;;;;;1055707;28;1540;-60
2023/08/11 02:55:35;;;;;;;;;;;;;;;;;;1056102;28;3920;-59
2023/08/11 02:56:09;;;;;;;;;;;;;;;;;;1055646;28;1679;-58
2023/08/11 02:56:44;;;;;;;;;;;;;;;;;;1055969;28;3967;-59
2023/08/11 02:57:15;;;;;;;;;;;;;;;;;;1055284;28;4027;-60
2023/08/11 02:57:45;;;;;;;;;;;;;;;;;;1055195;28;3209;-58
2023/08/11 02:58:16;;;;;;;;;;;;;;;;;;1055170;28;4087;-57
2023/08/11 02:58:47;;;;;;;;;;;;;;;;;;1056450;28;1722;-58
2023/08/11 02:59:17;;;;;;;;;;;;;;;;;;1055304;28;4166;-60
2023/08/11 02:59:49;;;;;;;;;;;;;;;;;;1056057;28;1202;-60
2023/08/11 03:00:19;;;;;;;;;;;;;;;;;;1054458;28;3953;-60
2023/08/11 03:00:49;;;;;;;;;;;;;;;;;;1056456;28;1580;-58
2023/08/11 03:01:20;;;;;;;;;;;;;;;;;;1055341;28;3815;-60
2023/08/11 03:01:50;;;;;;;;;;;;;;;;;;1056454;28;1617;-59
2023/08/11 03:02:20;;;;;;;;;;;;;;;;;;1055786;28;3872;-59
2023/08/11 03:02:51;;;;;;;;;;;;;;;;;;1055540;28;1627;-61
2023/08/11 03:03:21;;;;;;;;;;;;;;;;;;1056006;28;4036;-59
2023/08/11 03:03:52;;;;;;;;;;;;;;;;;;1055310;28;1910;-59
2023/08/11 03:04:23;;;;;;;;;;;;;;;;;;1054641;28;4305;-60
2023/08/11 03:04:53;;;;;;;;;;;;;;;;;;1055839;28;1561;-58
2023/08/11 03:05:24;;;;;;;;;;;;;;;;;;1056132;28;3789;-59
2023/08/11 03:05:55;;;;;;;;;;;;;;;;;;1054451;28;1735;-60
2023/08/11 03:06:25;;;;;;;;;;;;;;;;;;1055784;28;4253;-57
2023/08/11 03:06:56;;;;;;;;;;;;;;;;;;1055717;28;1736;-60
2023/08/11 03:07:26;;;;;;;;;;;;;;;;;;1055872;28;4024;-58
2023/08/11 03:07:56;;;;;;;;;;;;;;;;;;1054731;28;3111;-59
2023/08/11 03:08:27;;;;;;;;;;;;;;;;;;1055747;28;4044;-57
2023/08/11 03:08:57;;;;;;;;;;;;;;;;;;1055648;28;1847;-58
2023/08/11 03:09:27;;;;;;;;;;;;;;;;;;1055661;28;4082;-59
2023/08/11 03:09:58;;;;;;;;;;;;;;;;;;1055654;28;1397;-60
2023/08/11 03:10:28;;;;;;;;;;;;;;;;;;1055738;28;3783;-57
2023/08/11 03:10:58;;;;;;;;;;;;;;;;;;1055737;28;1728;-60
2023/08/11 03:11:29;;;;;;;;;;;;;;;;;;1056012;28;4029;-58
2023/08/11 03:11:59;;;;;;;;;;;;;;;;;;1056416;28;1377;-59
2023/08/11 03:12:30;;;;;;;;;;;;;;;;;;1053215;28;4043;-59
2023/08/11 03:13:00;;;;;;;;;;;;;;;;;;1055409;28;2567;-57
2023/08/11 03:13:31;;;;;;;;;;;;;;;;;;1055226;28;3840;-60
2023/08/11 03:14:01;;;;;;;;;;;;;;;;;;1056425;28;1738;-59
2023/08/11 03:14:32;;;;;;;;;;;;;;;;;;1054971;28;4556;-57
2023/08/11 03:15:06;;;;;;;;;;;;;;;;;;1056367;28;1712;-59
2023/08/11 03:15:37;;;;;;;;;;;;;;;;;;1053166;28;3976;-58
2023/08/11 03:16:07;;;;;;;;;;;;;;;;;;1056543;28;1461;-60
2023/08/11 03:16:38;;;;;;;;;;;;;;;;;;1054910;28;4135;-59
2023/08/11 03:17:10;;;;;;;;;;;;;;;;;;1056440;28;1792;-59
2023/08/11 03:17:40;;;;;;;;;;;;;;;;;;1055136;28;3876;-60
2023/08/11 03:18:10;;;;;;;;;;;;;;;;;;1056408;28;1601;-59
2023/08/11 03:18:40;;;;;;;;;;;;;;;;;;1055825;28;3809;-61
2023/08/11 03:19:11;;;;;;;;;;;;;;;;;;1055231;28;4377;-58
2023/08/11 03:19:41;;;;;;;;;;;;;;;;;;1056204;28;1748;-60
2023/08/11 03:20:15;;;;;;;;;;;;;;;;;;1055469;28;3993;-59
2023/08/11 03:20:45;;;;;;;;;;;;;;;;;;1055215;28;1324;-56
2023/08/11 03:21:16;;;;;;;;;;;;;;;;;;1050621;28;4595;-61
2023/08/11 03:21:46;;;;;;;;;;;;;;;;;;1051705;28;1752;-60
2023/08/11 03:22:17;;;;;;;;;;;;;;;;;;1050848;28;3929;-61
2023/08/11 03:22:48;;;;;;;;;;;;;;;;;;1051196;28;2969;-58
2023/08/11 03:23:18;;;;;;;;;;;;;;;;;;1053757;28;3947;-59
2023/08/11 03:23:49;;;;;;;;;;;;;;;;;;1056228;28;1706;-60
2023/08/11 03:24:19;;;;;;;;;;;;;;;;;;1055063;28;4073;-60
2023/08/11 03:24:49;;;;;;;;;;;;;;;;;;1056192;28;1777;-59
2023/08/11 03:25:20;;;;;;;;;;;;;;;;;;1055884;28;3855;-60
2023/08/11 03:25:50;;;;;;;;;;;;;;;;;;1055489;28;1936;-59
2023/08/11 03:26:20;;;;;;;;;;;;;;;;;;1055907;28;3754;-58
2023/08/11 03:26:50;;;;;;;;;;;;;;;;;;1055774;28;1857;-60
2023/08/11 03:27:21;;;;;;;;;;;;;;;;;;1055957;28;4203;-60
2023/08/11 03:27:51;;;;;;;;;;;;;;;;;;1055610;28;1714;-61
2023/08/11 03:28:21;;;;;;;;;;;;;;;;;;1055794;28;3870;-59
2023/08/11 03:28:51;;;;;;;;;;;;;;;;;;1055520;28;1692;-56
2023/08/11 03:29:22;;;;;;;;;;;;;;;;;;1055763;28;4021;-59
2023/08/11 03:29:52;;;;;;;;;;;;;;;;;;1055844;28;1874;-58
2023/08/11 03:30:22;;;;;;;;;;;;;;;;;;1054278;28;4013;-58
2023/08/11 03:30:53;;;;;;;;;;;;;;;;;;1055827;28;1300;-58
2023/08/11 03:31:23;;;;;;;;;;;;;;;;;;1055692;28;3874;-62
2023/08/11 03:31:53;;;;;;;;;;;;;;;;;;1056489;28;1803;-59
2023/08/11 03:32:23;;;;;;;;;;;;;;;;;;1055040;28;4107;-59
2023/08/11 03:32:54;;;;;;;;;;;;;;;;;;1051995;28;1776;-61
2023/08/11 03:33:24;;;;;;;;;;;;;;;;;;1050391;28;4043;-58
2023/08/11 03:33:54;;;;;;;;;;;;;;;;;;1047221;28;1450;-57
2023/08/11 03:34:25;;;;;;;;;;;;;;;;;;1046369;28;3866;-59
2023/08/11 03:34:55;;;;;;;;;;;;;;;;;;1051777;28;1462;-61
2023/08/11 03:35:25;;;;;;;;;;;;;;;;;;1050510;28;3881;-61
2023/08/11 03:35:55;;;;;;;;;;;;;;;;;;1056106;28;1451;-57
2023/08/11 03:36:26;;;;;;;;;;;;;;;;;;1055054;28;4003;-59